Time;durP1;ratioP1;P1;durP2;ratioP2;P2;SDS_P1;SDS_P2;PMS_P1;PMS_P2;Temp;Humidity;BMP_temperature;BMP_pressure;BME280_temperature;BME280_humidity;BME280_pressure;Samples;Min_cycle;Max_cycle;Signal;HPM_P1;HPM_P2
2023/05/04 00:01:11;;;;;;;3.90;2.58;;;11.60;99.90;;;;;;4974725;28;20238;-65
2023/05/04 00:03:40;;;;;;;3.92;2.70;;;11.60;99.90;;;;;;4973513;28;20173;-66
2023/05/04 00:06:08;;;;;;;4.53;2.65;;;11.60;99.90;;;;;;4958365;28;20177;-65
2023/05/04 00:08:36;;;;;;;4.68;2.85;;;11.50;99.90;;;;;;4957337;28;20181;-66
2023/05/04 00:11:02;;;;;;;4.55;2.70;;;11.70;99.90;;;;;;4959296;28;20222;-66
2023/05/04 00:13:27;;;;;;;3.42;2.50;;;11.50;99.90;;;;;;4973151;28;20204;-66
2023/05/04 00:15:53;;;;;;;3.33;2.03;;;11.40;99.90;;;;;;4955430;28;20204;-65
2023/05/04 00:18:19;;;;;;;3.47;2.42;;;11.40;99.90;;;;;;4957147;29;20255;-66
2023/05/04 00:20:46;;;;;;;2.47;2.00;;;11.40;99.90;;;;;;4964282;28;20211;-65
2023/05/04 00:23:12;;;;;;;4.40;2.10;;;11.40;99.90;;;;;;4956724;29;20185;-66
2023/05/04 00:25:38;;;;;;;3.22;2.40;;;11.40;99.90;;;;;;4958125;28;20243;-67
2023/05/04 00:28:04;;;;;;;3.70;2.35;;;11.30;99.90;;;;;;4973208;28;20180;-66
2023/05/04 00:30:29;;;;;;;3.43;2.23;;;11.30;99.90;;;;;;4956907;29;20192;-65
2023/05/04 00:32:57;;;;;;;5.28;2.17;;;11.30;99.90;;;;;;4956469;28;20211;-65
2023/05/04 00:35:26;;;;;;;3.05;2.00;;;11.20;99.90;;;;;;4964278;28;20189;-66
2023/05/04 00:37:52;;;;;;;5.45;2.35;;;11.20;99.90;;;;;;4965187;28;20274;-66
2023/05/04 00:40:20;;;;;;;3.03;2.10;;;11.20;99.90;;;;;;4964782;28;20197;-65
2023/05/04 00:42:46;;;;;;;3.30;1.88;;;11.20;99.90;;;;;;4953402;29;20220;-66
2023/05/04 00:45:13;;;;;;;3.22;2.30;;;11.10;99.90;;;;;;4954179;29;20358;-66
2023/05/04 00:47:40;;;;;;;3.22;2.30;;;11.10;99.90;;;;;;4953523;28;20359;-66
2023/05/04 00:50:07;;;;;;;3.20;2.17;;;11.10;99.90;;;;;;4954500;29;20177;-66
2023/05/04 00:52:36;;;;;;;4.03;2.05;;;11.00;99.90;;;;;;4969147;28;20318;-65
2023/05/04 00:55:04;;;;;;;2.80;1.83;;;10.90;99.90;;;;;;4959477;28;20191;-65
2023/05/04 00:57:35;;;;;;;3.22;2.30;;;10.90;99.90;;;;;;4943512;28;20200;-66
2023/05/04 01:00:09;;;;;;;4.20;2.20;;;10.90;99.90;;;;;;4940780;28;20181;-66
2023/05/04 01:02:35;;;;;;;3.03;2.40;;;10.90;99.90;;;;;;4955717;28;20188;-65
2023/05/04 01:05:01;;;;;;;2.73;2.10;;;10.90;99.90;;;;;;4951816;29;20204;-79
2023/05/04 01:07:54;;;;;;;3.33;2.17;;;10.80;99.90;;;;;;4972824;28;20191;-79
2023/05/04 01:10:29;;;;;;;3.27;2.30;;;10.70;99.90;;;;;;4952920;29;20190;-78
2023/05/04 01:13:08;;;;;;;2.97;2.10;;;10.80;99.90;;;;;;4949889;29;20199;-78
2023/05/04 01:15:35;;;;;;;5.07;2.40;;;10.70;99.90;;;;;;4972496;28;20172;-79
2023/05/04 01:18:03;;;;;;;2.67;2.10;;;10.60;99.90;;;;;;4969107;28;20181;-78
2023/05/04 01:20:33;;;;;;;3.10;2.20;;;10.70;99.90;;;;;;4938160;29;20177;-78
2023/05/04 01:23:02;;;;;;;3.53;2.20;;;10.70;99.90;;;;;;4949979;28;20200;-79
2023/05/04 01:25:35;;;;;;;4.40;2.17;;;10.60;99.90;;;;;;4969282;28;20187;-79
2023/05/04 01:28:16;;;;;;;4.60;2.07;;;10.60;99.90;;;;;;4960229;28;20184;-78
2023/05/04 01:30:52;;;;;;;2.83;2.20;;;10.60;99.90;;;;;;4973015;28;20212;-79
2023/05/04 01:33:19;;;;;;;3.67;2.10;;;10.60;99.90;;;;;;4956240;28;20200;-79
2023/05/04 01:35:50;;;;;;;3.33;2.07;;;10.50;99.90;;;;;;4955931;28;20203;-78
2023/05/04 01:38:16;;;;;;;2.40;1.83;;;10.50;99.90;;;;;;4964479;28;20178;-79
2023/05/04 01:40:46;;;;;;;2.17;1.90;;;10.50;99.90;;;;;;4956093;28;20193;-79
2023/05/04 01:43:14;;;;;;;2.83;2.00;;;10.40;99.90;;;;;;4971566;28;20219;-77
2023/05/04 01:45:41;;;;;;;2.30;1.97;;;10.50;99.90;;;;;;4956196;28;20204;-78
2023/05/04 01:48:07;;;;;;;2.97;2.10;;;10.40;99.90;;;;;;4973175;28;20181;-80
2023/05/04 01:50:35;;;;;;;2.80;2.00;;;10.30;99.90;;;;;;4972348;28;20251;-77
2023/05/04 01:53:03;;;;;;;3.50;1.87;;;10.30;99.90;;;;;;4955854;29;20235;-72
2023/05/04 01:55:28;;;;;;;3.53;1.93;;;10.30;99.90;;;;;;4971892;28;20173;-77
2023/05/04 01:57:54;;;;;;;3.70;1.80;;;10.30;99.90;;;;;;4957410;28;20177;-79
2023/05/04 02:00:20;;;;;;;4.60;1.93;;;10.30;99.90;;;;;;4963220;28;20430;-79
2023/05/04 02:02:47;;;;;;;2.20;1.80;;;10.30;99.90;;;;;;4956630;28;20211;-78
2023/05/04 02:05:15;;;;;;;4.03;1.63;;;10.30;99.90;;;;;;4964997;28;20271;-79
2023/05/04 02:07:41;;;;;;;2.77;1.60;;;10.20;99.90;;;;;;4972247;28;20295;-78
2023/05/04 02:10:07;;;;;;;2.43;1.70;;;10.20;99.90;;;;;;4952631;29;20265;-78
2023/05/04 02:12:35;;;;;;;2.50;1.70;;;10.20;99.90;;;;;;4953607;29;20216;-76
2023/05/04 02:15:01;;;;;;;2.37;1.70;;;10.20;99.90;;;;;;4958835;28;20263;-78
2023/05/04 02:17:29;;;;;;;2.57;1.63;;;10.20;99.90;;;;;;4952412;28;20313;-78
2023/05/04 02:19:54;;;;;;;2.77;1.77;;;10.30;99.90;;;;;;4953301;29;20176;-78
2023/05/04 02:22:22;;;;;;;2.47;1.70;;;10.30;99.90;;;;;;4955516;29;20192;-78
2023/05/04 02:24:48;;;;;;;2.47;1.50;;;10.30;99.90;;;;;;4964730;28;20196;-72
2023/05/04 02:27:13;;;;;;;3.17;1.60;;;10.30;99.90;;;;;;4958137;28;20181;-79
2023/05/04 02:29:39;;;;;;;4.53;1.60;;;10.30;99.90;;;;;;4944921;28;20173;-77
2023/05/04 02:32:07;;;;;;;1.60;1.40;;;10.30;99.90;;;;;;4963323;28;20296;-73
2023/05/04 02:34:34;;;;;;;2.80;1.90;;;10.30;99.90;;;;;;4972692;28;20173;-78
2023/05/04 02:37:02;;;;;;;1.60;1.50;;;10.30;99.90;;;;;;4971055;28;20516;-79
2023/05/04 02:39:28;;;;;;;3.63;1.63;;;10.20;99.90;;;;;;4967441;28;20201;-79
2023/05/04 02:41:56;;;;;;;2.83;1.70;;;10.20;99.90;;;;;;4955649;29;20173;-78
2023/05/04 02:44:24;;;;;;;4.63;1.93;;;10.20;99.90;;;;;;4972042;28;20200;-77
2023/05/04 02:46:50;;;;;;;2.63;1.60;;;10.20;99.90;;;;;;4955457;29;20176;-78
2023/05/04 02:49:16;;;;;;;1.73;1.40;;;10.20;99.90;;;;;;4963098;28;20216;-75
2023/05/04 02:51:44;;;;;;;2.67;1.73;;;10.10;99.90;;;;;;4974621;28;20184;-78
2023/05/04 02:54:09;;;;;;;2.07;1.60;;;10.10;99.90;;;;;;4959650;28;20267;-76
2023/05/04 02:56:37;;;;;;;2.00;1.37;;;10.10;99.90;;;;;;4967220;28;20219;-78
2023/05/04 02:59:03;;;;;;;1.80;1.53;;;10.00;99.90;;;;;;4959624;28;20199;-78
2023/05/04 03:01:29;;;;;;;2.07;1.50;;;10.00;99.90;;;;;;4974412;28;20177;-77
2023/05/04 03:03:54;;;;;;;1.77;1.50;;;9.90;99.90;;;;;;4975129;28;20198;-78
2023/05/04 03:06:20;;;;;;;1.87;1.50;;;10.00;99.90;;;;;;4971769;28;20411;-79
2023/05/04 03:08:47;;;;;;;2.73;1.50;;;9.90;99.90;;;;;;4955576;29;20180;-78
2023/05/04 03:11:16;;;;;;;2.03;1.60;;;9.90;99.90;;;;;;4971399;28;20300;-78
2023/05/04 03:13:41;;;;;;;1.43;1.30;;;9.90;99.90;;;;;;4952404;29;20449;-78
2023/05/04 03:16:07;;;;;;;3.47;1.67;;;9.90;99.90;;;;;;4944178;28;20219;-76
2023/05/04 03:18:32;;;;;;;2.40;1.67;;;9.90;99.90;;;;;;4961637;28;20180;-78
2023/05/04 03:20:58;;;;;;;2.73;1.70;;;9.90;99.90;;;;;;4965344;28;20197;-77
2023/05/04 03:23:24;;;;;;;2.30;1.63;;;9.90;99.90;;;;;;4970723;28;20178;-77
2023/05/04 03:25:49;;;;;;;2.83;1.60;;;10.00;99.90;;;;;;4954118;28;20209;-78
2023/05/04 03:28:15;;;;;;;2.60;1.70;;;9.90;99.90;;;;;;4958409;29;20195;-75
2023/05/04 03:30:43;;;;;;;21.40;15.43;;;9.90;99.90;;;;;;4974328;28;20177;-79
2023/05/04 03:33:18;;;;;;;16.10;11.37;;;9.90;99.90;;;;;;4971220;28;20193;-80
2023/05/04 03:35:43;;;;;;;9.80;6.77;;;10.00;99.90;;;;;;4946973;29;20192;-79
2023/05/04 03:38:10;;;;;;;5.77;4.40;;;9.90;99.90;;;;;;4957869;29;20312;-80
2023/05/04 03:40:35;;;;;;;4.87;4.10;;;9.90;99.90;;;;;;4968840;28;20175;-79
2023/05/04 03:43:06;;;;;;;7.00;3.60;;;10.00;99.90;;;;;;4959232;28;20205;-76
2023/05/04 03:45:31;;;;;;;10.23;6.80;;;10.00;99.90;;;;;;4957826;29;20173;-78
2023/05/04 03:47:57;;;;;;;5.63;4.53;;;9.90;99.90;;;;;;4958017;28;20296;-77
2023/05/04 03:50:23;;;;;;;6.00;4.27;;;9.90;99.90;;;;;;4962117;28;20220;-77
2023/05/04 03:52:53;;;;;;;4.67;3.40;;;9.90;99.90;;;;;;4974475;28;20216;-77
2023/05/04 03:55:19;;;;;;;4.27;3.70;;;9.90;99.90;;;;;;4956870;29;20173;-73
2023/05/04 03:57:44;;;;;;;3.07;2.50;;;10.00;99.90;;;;;;4955416;28;20295;-74
2023/05/04 04:00:10;;;;;;;4.57;3.03;;;10.00;99.90;;;;;;4950193;29;20204;-79
2023/05/04 04:02:41;;;;;;;4.27;2.70;;;9.90;99.90;;;;;;4973092;28;20204;-79
2023/05/04 04:05:07;;;;;;;3.67;2.60;;;10.00;99.90;;;;;;4966494;28;20195;-77
2023/05/04 04:07:35;;;;;;;2.70;2.37;;;10.00;99.90;;;;;;4951923;29;20177;-78
2023/05/04 04:10:05;;;;;;;3.37;2.10;;;10.00;99.90;;;;;;4960505;28;20200;-79
2023/05/04 04:12:35;;;;;;;2.40;1.70;;;10.00;99.90;;;;;;4966970;28;20223;-79
2023/05/04 04:15:01;;;;;;;3.17;2.10;;;10.00;99.90;;;;;;4974974;28;20192;-78
2023/05/04 04:17:27;;;;;;;2.83;1.97;;;10.00;99.90;;;;;;4961044;28;20200;-78
2023/05/04 04:19:54;;;;;;;3.53;2.07;;;10.00;99.90;;;;;;4973963;28;20215;-76
2023/05/04 04:22:20;;;;;;;6.03;2.30;;;9.90;99.90;;;;;;4973306;28;20180;-79
2023/05/04 04:24:46;;;;;;;2.30;2.03;;;9.90;99.90;;;;;;4970178;28;20205;-78
2023/05/04 04:27:11;;;;;;;2.77;2.23;;;10.00;99.90;;;;;;4972622;28;20195;-77
2023/05/04 04:29:38;;;;;;;2.60;2.00;;;10.00;99.90;;;;;;4961634;28;20181;-75
2023/05/04 04:32:07;;;;;;;3.73;2.20;;;10.00;99.90;;;;;;4961835;28;20196;-78
2023/05/04 04:34:33;;;;;;;2.73;1.73;;;10.00;99.90;;;;;;4956952;29;20177;-79
2023/05/04 04:37:01;;;;;;;9.97;6.13;;;10.10;99.90;;;;;;4963152;28;20184;-77
2023/05/04 04:39:26;;;;;;;5.50;4.00;;;10.10;99.90;;;;;;4956075;28;20185;-78
2023/05/04 04:41:52;;;;;;;5.33;3.00;;;10.10;99.90;;;;;;4943949;29;20212;-77
2023/05/04 04:44:20;;;;;;;4.30;2.80;;;10.10;99.90;;;;;;4957646;29;20180;-79
2023/05/04 04:46:46;;;;;;;3.10;2.10;;;10.10;99.90;;;;;;4958309;28;20201;-79
2023/05/04 04:49:16;;;;;;;3.03;2.40;;;10.10;99.90;;;;;;4963381;28;20178;-73
2023/05/04 04:51:45;;;;;;;3.27;2.13;;;10.10;99.90;;;;;;4956258;28;20209;-80
2023/05/04 04:54:13;;;;;;;3.03;2.10;;;10.10;99.90;;;;;;4953540;28;20180;-79
2023/05/04 04:56:43;;;;;;;2.43;2.17;;;10.10;99.90;;;;;;4956617;28;20205;-73
2023/05/04 04:59:12;;;;;;;3.60;2.00;;;10.10;99.90;;;;;;4973070;28;20275;-78
2023/05/04 05:01:41;;;;;;;5.73;2.13;;;10.10;99.90;;;;;;4956513;29;20215;-78
2023/05/04 05:04:06;;;;;;;3.47;2.40;;;10.20;99.90;;;;;;4952779;28;20178;-73
2023/05/04 05:06:32;;;;;;;2.50;1.90;;;10.20;99.90;;;;;;4962113;28;20189;-78
2023/05/04 05:08:58;;;;;;;3.80;1.63;;;10.20;99.90;;;;;;4956452;28;20172;-77
2023/05/04 05:11:24;;;;;;;2.37;1.77;;;10.20;99.90;;;;;;4956424;29;20270;-78
2023/05/04 05:13:50;;;;;;;2.00;1.77;;;10.30;99.90;;;;;;4954589;28;20189;-78
2023/05/04 05:16:20;;;;;;;3.35;1.85;;;10.30;99.90;;;;;;4972944;28;20184;-79
2023/05/04 05:18:46;;;;;;;2.53;2.13;;;10.40;99.90;;;;;;4952500;28;20212;-79
2023/05/04 05:21:13;;;;;;;2.92;2.35;;;10.40;99.90;;;;;;4947735;29;20177;-74
2023/05/04 05:23:38;;;;;;;3.97;1.88;;;10.40;99.90;;;;;;4969115;28;20280;-78
2023/05/04 05:26:04;;;;;;;2.47;1.80;;;10.50;99.90;;;;;;4968221;28;20182;-76
2023/05/04 05:28:29;;;;;;;4.00;2.30;;;10.60;99.90;;;;;;4956761;28;20212;-79
2023/05/04 05:30:55;;;;;;;4.15;2.03;;;10.60;99.90;;;;;;4965659;28;20184;-79
2023/05/04 05:33:24;;;;;;;2.10;1.75;;;10.70;99.90;;;;;;4953505;28;20315;-78
2023/05/04 05:35:50;;;;;;;2.80;2.00;;;10.80;99.90;;;;;;4968031;28;20221;-78
2023/05/04 05:38:16;;;;;;;3.05;1.73;;;10.80;99.90;;;;;;4953347;29;20177;-78
2023/05/04 05:40:44;;;;;;;2.17;1.73;;;10.90;99.90;;;;;;4955234;29;20169;-78
2023/05/04 05:43:12;;;;;;;3.33;2.08;;;11.00;99.90;;;;;;4971371;28;20188;-78
2023/05/04 05:45:38;;;;;;;3.63;2.20;;;11.00;99.90;;;;;;4961560;28;20287;-78
2023/05/04 05:48:04;;;;;;;2.85;2.10;;;11.20;99.90;;;;;;4952505;29;20284;-76
2023/05/04 05:50:30;;;;;;;2.75;1.80;;;11.20;99.90;;;;;;4943964;29;20205;-79
2023/05/04 05:52:55;;;;;;;2.20;2.00;;;11.30;99.90;;;;;;4950305;29;20228;-73
2023/05/04 05:55:23;;;;;;;4.05;2.60;;;11.40;99.90;;;;;;4948328;28;20196;-79
2023/05/04 05:57:49;;;;;;;2.40;2.03;;;11.50;99.90;;;;;;4955907;28;20191;-78
2023/05/04 06:00:17;;;;;;;6.93;2.30;;;11.60;99.90;;;;;;4952402;28;20200;-76
2023/05/04 06:02:43;;;;;;;3.30;2.00;;;11.70;99.90;;;;;;4955485;28;20181;-78
2023/05/04 06:05:13;;;;;;;3.38;2.13;;;11.80;99.90;;;;;;4956615;28;20183;-79
2023/05/04 06:07:39;;;;;;;4.05;2.22;;;11.80;99.90;;;;;;4944015;29;20266;-77
2023/05/04 06:10:07;;;;;;;2.80;1.90;;;11.90;99.90;;;;;;4940119;29;20205;-78
2023/05/04 06:12:33;;;;;;;2.92;2.28;;;11.90;99.90;;;;;;4971643;28;20208;-78
2023/05/04 06:15:01;;;;;;;2.40;2.20;;;12.00;99.90;;;;;;4971214;28;20263;-78
2023/05/04 06:17:26;;;;;;;2.83;2.10;;;12.10;99.90;;;;;;4950717;28;20200;-78
2023/05/04 06:19:54;;;;;;;2.40;1.80;;;12.10;99.90;;;;;;4955548;29;20248;-78
2023/05/04 06:22:20;;;;;;;2.45;1.90;;;12.20;99.90;;;;;;4957014;28;20205;-78
2023/05/04 06:24:45;;;;;;;2.45;1.60;;;12.20;99.90;;;;;;4971307;28;20187;-78
2023/05/04 06:27:11;;;;;;;3.92;1.92;;;12.30;99.90;;;;;;4975642;28;20256;-74
2023/05/04 06:29:39;;;;;;;3.90;2.17;;;12.30;99.90;;;;;;4945753;29;20216;-78
2023/05/04 06:32:08;;;;;;;2.67;2.05;;;12.40;99.90;;;;;;4946501;28;20229;-78
2023/05/04 06:34:36;;;;;;;2.20;1.55;;;12.40;99.90;;;;;;4943556;29;20188;-77
2023/05/04 06:37:02;;;;;;;2.80;1.75;;;12.40;99.90;;;;;;4959466;28;20185;-77
2023/05/04 06:39:33;;;;;;;1.95;1.60;;;12.50;99.90;;;;;;4955864;29;20455;-76
2023/05/04 06:41:58;;;;;;;2.25;1.80;;;12.50;99.90;;;;;;4973729;28;20230;-78
2023/05/04 06:44:27;;;;;;;5.53;1.95;;;12.60;99.90;;;;;;4959508;29;20240;-76
2023/05/04 06:46:53;;;;;;;2.45;1.65;;;12.70;99.90;;;;;;4953785;29;20184;-79
2023/05/04 06:49:21;;;;;;;3.53;1.80;;;12.70;99.90;;;;;;4971786;28;20177;-78
2023/05/04 06:51:49;;;;;;;2.47;1.98;;;12.80;99.90;;;;;;4958080;29;20169;-79
2023/05/04 06:54:14;;;;;;;3.63;1.80;;;12.80;99.90;;;;;;4958394;28;20208;-79
2023/05/04 06:56:41;;;;;;;2.63;1.98;;;12.90;99.90;;;;;;4973550;28;20169;-79
2023/05/04 06:59:08;;;;;;;2.47;1.73;;;13.00;99.90;;;;;;4972259;28;20302;-79
2023/05/04 07:01:34;;;;;;;3.67;1.90;;;13.00;99.90;;;;;;4957716;28;20191;-78
2023/05/04 07:04:00;;;;;;;2.72;2.00;;;13.10;99.90;;;;;;4956520;28;20288;-76
2023/05/04 07:06:28;;;;;;;2.15;1.80;;;13.20;99.90;;;;;;4956626;29;20177;-77
2023/05/04 07:08:54;;;;;;;2.85;2.10;;;13.20;99.90;;;;;;4957759;28;20228;-78
2023/05/04 07:11:22;;;;;;;2.70;2.10;;;13.30;99.90;;;;;;4965133;28;20176;-78
2023/05/04 07:13:48;;;;;;;3.30;2.03;;;13.40;99.90;;;;;;4969686;28;20197;-68
2023/05/04 07:16:16;;;;;;;3.15;2.00;;;13.40;99.90;;;;;;4974275;28;20192;-78
2023/05/04 07:18:44;;;;;;;2.85;1.88;;;13.50;99.90;;;;;;4958842;29;20177;-79
2023/05/04 07:21:15;;;;;;;2.00;1.67;;;13.60;99.90;;;;;;4973194;28;20176;-78
2023/05/04 07:23:43;;;;;;;3.15;1.80;;;13.60;99.90;;;;;;4974777;28;20238;-75
2023/05/04 07:26:11;;;;;;;2.17;1.92;;;13.70;99.90;;;;;;4950126;28;20277;-79
2023/05/04 07:28:42;;;;;;;2.63;2.30;;;13.70;99.90;;;;;;4967673;28;20181;-79
2023/05/04 07:31:08;;;;;;;2.75;1.88;;;13.80;99.90;;;;;;4949835;28;20200;-78
2023/05/04 07:33:34;;;;;;;2.55;2.00;;;13.90;99.90;;;;;;4945005;29;20219;-80
2023/05/04 07:36:01;;;;;;;2.10;1.80;;;13.90;99.90;;;;;;4956054;28;20207;-79
2023/05/04 07:38:32;;;;;;;2.78;1.80;;;14.00;99.90;;;;;;4956711;28;20283;-79
2023/05/04 07:41:00;;;;;;;2.90;1.80;;;14.00;99.90;;;;;;4953614;28;20432;-78
2023/05/04 07:43:27;;;;;;;2.17;1.80;;;14.10;99.90;;;;;;4970600;28;20173;-79
2023/05/04 07:45:58;;;;;;;3.78;1.95;;;14.30;99.90;;;;;;4944015;28;20263;-78
2023/05/04 07:48:23;;;;;;;2.45;1.70;;;14.30;99.90;;;;;;4950377;28;20184;-73
2023/05/04 07:50:52;;;;;;;3.17;2.05;;;14.40;99.90;;;;;;4951324;28;20173;-79
2023/05/04 07:53:19;;;;;;;2.75;1.90;;;14.50;99.90;;;;;;4965075;28;20211;-79
2023/05/04 07:55:50;;;;;;;3.45;2.03;;;14.60;99.90;;;;;;4957687;28;20198;-78
2023/05/04 07:58:15;;;;;;;3.22;2.05;;;14.70;99.90;;;;;;4971074;28;20173;-79
2023/05/04 08:00:43;;;;;;;4.07;1.92;;;14.70;99.90;;;;;;4951548;29;20185;-80
2023/05/04 08:03:11;;;;;;;3.00;1.88;;;14.80;99.90;;;;;;4957802;28;20205;-78
2023/05/04 08:05:39;;;;;;;2.08;1.80;;;14.90;99.90;;;;;;4970054;28;20198;-81
2023/05/04 08:08:05;;;;;;;2.63;1.88;;;15.00;99.90;;;;;;4974627;28;20291;-80
2023/05/04 08:10:34;;;;;;;4.93;2.38;;;15.10;99.90;;;;;;4971224;28;20219;-78
2023/05/04 08:13:00;;;;;;;4.45;2.47;;;15.20;99.90;;;;;;4953215;28;20300;-78
2023/05/04 08:15:26;;;;;;;2.72;1.98;;;15.30;99.90;;;;;;4973159;28;20173;-79
2023/05/04 08:17:53;;;;;;;2.90;2.08;;;15.40;99.90;;;;;;4953960;28;20229;-77
2023/05/04 08:20:19;;;;;;;3.08;2.50;;;15.50;99.90;;;;;;4943990;29;20267;-78
2023/05/04 08:22:45;;;;;;;2.22;1.85;;;15.50;99.90;;;;;;4944592;28;20264;-79
2023/05/04 08:25:14;;;;;;;2.15;1.80;;;15.60;99.90;;;;;;4955313;29;20180;-79
2023/05/04 08:27:39;;;;;;;3.50;2.28;;;15.70;99.90;;;;;;4973096;28;20324;-77
2023/05/04 08:30:06;;;;;;;3.35;2.47;;;15.80;99.90;;;;;;4970432;28;20275;-79
2023/05/04 08:32:34;;;;;;;3.83;2.40;;;15.90;99.90;;;;;;4948885;29;20213;-79
2023/05/04 08:35:00;;;;;;;2.45;2.03;;;16.00;99.90;;;;;;4964038;28;20211;-78
2023/05/04 08:37:25;;;;;;;2.95;2.45;;;16.10;99.90;;;;;;4950331;29;20188;-79
2023/05/04 08:39:53;;;;;;;2.90;2.60;;;16.30;99.90;;;;;;4976322;28;20291;-78
2023/05/04 08:42:34;;;;;;;3.33;2.38;;;16.40;99.90;;;;;;4959890;28;20196;-79
2023/05/04 08:45:00;;;;;;;3.88;2.80;;;16.50;99.90;;;;;;4950844;28;20212;-79
2023/05/04 08:47:27;;;;;;;3.72;2.60;;;16.60;99.90;;;;;;4972979;28;20195;-78
2023/05/04 08:49:55;;;;;;;4.10;2.35;;;16.80;99.90;;;;;;4951507;28;20283;-79
2023/05/04 08:52:24;;;;;;;3.80;2.70;;;16.90;99.90;;;;;;4944786;29;20285;-80
2023/05/04 08:54:56;;;;;;;3.65;2.58;;;17.00;99.90;;;;;;4952014;28;20180;-77
2023/05/04 08:57:23;;;;;;;3.70;2.60;;;17.10;99.90;;;;;;4956284;29;20187;-78
2023/05/04 08:59:56;;;;;;;5.13;3.05;;;17.30;99.90;;;;;;4956833;29;20272;-78
2023/05/04 09:02:26;;;;;;;4.13;3.45;;;17.50;99.90;;;;;;4972206;28;20184;-78
2023/05/04 09:04:54;;;;;;;4.57;3.55;;;17.60;99.90;;;;;;4964625;28;20176;-79
2023/05/04 09:07:21;;;;;;;4.65;3.63;;;17.80;99.90;;;;;;4958269;28;20185;-79
2023/05/04 09:09:52;;;;;;;4.25;3.15;;;17.90;99.90;;;;;;4948710;28;20176;-78
2023/05/04 09:12:20;;;;;;;4.47;3.67;;;18.10;99.90;;;;;;4972037;28;20216;-79
2023/05/04 09:14:48;;;;;;;7.28;4.07;;;18.20;99.90;;;;;;4958029;29;20177;-78
2023/05/04 09:17:24;;;;;;;4.25;3.15;;;18.30;99.90;;;;;;4969384;28;20333;-78
2023/05/04 09:20:00;;;;;;;4.68;3.55;;;18.40;99.90;;;;;;4949345;29;20247;-78
2023/05/04 09:22:26;;;;;;;5.00;3.38;;;18.50;99.90;;;;;;4957054;28;20200;-78
2023/05/04 09:24:52;;;;;;;4.20;3.78;;;18.60;99.90;;;;;;4961544;28;20174;-80
2023/05/04 09:27:21;;;;;;;4.35;2.97;;;18.70;99.90;;;;;;4946878;28;20215;-78
2023/05/04 09:29:53;;;;;;;7.07;3.80;;;18.90;99.90;;;;;;4942762;29;20189;-79
2023/05/04 09:32:21;;;;;;;4.63;3.47;;;18.90;99.90;;;;;;4952849;28;20272;-75
2023/05/04 09:34:51;;;;;;;4.70;3.38;;;19.10;99.90;;;;;;4961383;28;20173;-80
2023/05/04 09:37:22;;;;;;;3.78;3.38;;;19.20;99.90;;;;;;4955420;28;20181;-73
2023/05/04 09:39:56;;;;;;;5.00;3.08;;;19.30;99.90;;;;;;4974891;28;20187;-76
2023/05/04 09:42:23;;;;;;;3.22;2.70;;;19.40;99.90;;;;;;4958087;28;20181;-81
2023/05/04 09:45:04;;;;;;;4.05;3.05;;;19.40;99.90;;;;;;4968697;28;20220;-79
2023/05/04 09:47:35;;;;;;;4.07;2.53;;;19.50;99.90;;;;;;4949091;29;20199;-78
2023/05/04 09:50:14;;;;;;;5.35;2.90;;;19.70;99.90;;;;;;4968719;28;20173;-80
2023/05/04 09:52:47;;;;;;;3.33;2.90;;;19.80;99.90;;;;;;4938104;29;20216;-79
2023/05/04 09:55:17;;;;;;;4.82;3.20;;;19.90;99.90;;;;;;4952643;28;20260;-79
2023/05/04 09:57:47;;;;;;;3.60;3.15;;;19.90;99.90;;;;;;4941808;29;20231;-78
2023/05/04 10:00:16;;;;;;;3.83;2.80;;;20.00;99.90;;;;;;4957667;28;20267;-76
2023/05/04 10:02:47;;;;;;;4.30;2.92;;;20.10;99.90;;;;;;4961709;28;20208;-79
2023/05/04 10:05:16;;;;;;;3.55;2.60;;;20.20;99.90;;;;;;4949665;28;20208;-78
2023/05/04 10:07:45;;;;;;;4.05;2.70;;;20.30;99.90;;;;;;4954979;29;20193;-80
2023/05/04 10:10:12;;;;;;;3.47;2.47;;;20.40;99.90;;;;;;4972106;28;20259;-80
2023/05/04 10:12:42;;;;;;;7.32;2.67;;;20.50;99.90;;;;;;4971824;28;20197;-79
2023/05/04 10:15:11;;;;;;;2.85;2.55;;;20.60;99.90;;;;;;4960409;28;20227;-80
2023/05/04 10:17:43;;;;;;;3.47;2.65;;;20.80;99.90;;;;;;4953951;29;20236;-80
2023/05/04 10:20:16;;;;;;;4.03;2.47;;;21.00;99.90;;;;;;4974338;28;20448;-78
2023/05/04 10:23:08;;;;;;;2.47;2.28;;;21.20;99.90;;;;;;4978371;28;20180;-80
2023/05/04 10:25:39;;;;;;;2.75;2.20;;;21.50;99.90;;;;;;4958014;28;20243;-78
2023/05/04 10:28:41;;;;;;;3.17;2.60;;;21.90;99.90;;;;;;4966868;28;20364;-80
2023/05/04 10:31:12;;;;;;;3.42;2.40;;;22.30;99.90;;;;;;4973379;28;20196;-78
2023/05/04 10:33:43;;;;;;;4.53;2.63;;;22.60;99.60;;;;;;4975213;28;20271;-80
2023/05/04 10:36:10;;;;;;;3.45;2.20;;;22.80;99.50;;;;;;4965872;28;20209;-79
2023/05/04 10:38:41;;;;;;;2.72;2.10;;;22.80;99.10;;;;;;4948891;29;20177;-78
2023/05/04 10:41:16;;;;;;;3.15;2.30;;;22.90;99.20;;;;;;4974538;28;20181;-78
2023/05/04 10:43:47;;;;;;;3.50;2.42;;;23.10;93.40;;;;;;4964034;28;20180;-79
2023/05/04 10:46:22;;;;;;;2.60;2.40;;;23.30;97.50;;;;;;4958971;28;20211;-76
2023/05/04 10:48:49;;;;;;;2.85;1.95;;;23.40;96.50;;;;;;4964041;28;20184;-74
2023/05/04 10:51:22;;;;;;;3.15;2.35;;;23.50;98.10;;;;;;4957651;29;20231;-78
2023/05/04 10:53:51;;;;;;;2.33;2.03;;;23.60;96.80;;;;;;4974721;28;20205;-79
2023/05/04 10:56:25;;;;;;;3.35;2.40;;;23.80;96.00;;;;;;4974221;28;20177;-80
2023/05/04 10:58:56;;;;;;;3.63;2.00;;;23.90;94.60;;;;;;4956583;29;20197;-78
2023/05/04 11:01:22;;;;;;;3.35;2.10;;;24.10;96.10;;;;;;4956387;29;20188;-80
2023/05/04 11:03:49;;;;;;;2.78;2.20;;;24.20;95.30;;;;;;4975166;28;20176;-80
2023/05/04 11:06:21;;;;;;;3.20;1.90;;;24.30;95.80;;;;;;4971378;28;20233;-79
2023/05/04 11:08:57;;;;;;;2.03;1.83;;;24.40;93.40;;;;;;4948155;28;20292;-80
2023/05/04 11:11:26;;;;;;;2.25;1.80;;;24.40;93.50;;;;;;4962798;28;20196;-78
2023/05/04 11:13:53;;;;;;;2.55;1.63;;;24.50;94.00;;;;;;4949374;28;20346;-79
2023/05/04 11:16:28;;;;;;;2.45;2.10;;;24.50;94.10;;;;;;4958230;28;20199;-79
2023/05/04 11:19:05;;;;;;;2.05;1.70;;;24.60;91.30;;;;;;4963697;28;20207;-79
2023/05/04 11:21:31;;;;;;;1.77;1.60;;;24.60;91.80;;;;;;4961421;28;20180;-81
2023/05/04 11:24:01;;;;;;;2.15;1.95;;;24.70;90.50;;;;;;4953913;29;20200;-75
2023/05/04 11:26:27;;;;;;;2.45;1.98;;;24.70;90.50;;;;;;4966770;28;20177;-79
2023/05/04 11:28:53;;;;;;;2.03;1.75;;;24.70;90.60;;;;;;4947112;29;20196;-79
2023/05/04 11:31:20;;;;;;;2.05;1.80;;;24.70;89.20;;;;;;4958359;28;20180;-79
2023/05/04 11:33:48;;;;;;;3.50;2.08;;;24.70;87.90;;;;;;4970582;28;20204;-79
2023/05/04 11:36:17;;;;;;;3.35;2.13;;;24.70;88.80;;;;;;4950551;29;20173;-79
2023/05/04 11:38:45;;;;;;;2.17;1.75;;;24.70;86.40;;;;;;4957842;29;20412;-78
2023/05/04 11:41:11;;;;;;;2.55;1.85;;;24.70;87.50;;;;;;4942598;29;20209;-79
2023/05/04 11:43:38;;;;;;;1.88;1.60;;;24.80;86.90;;;;;;4954914;28;20263;-77
2023/05/04 11:46:06;;;;;;;2.25;1.77;;;24.90;86.40;;;;;;4969965;28;20204;-79
2023/05/04 11:48:37;;;;;;;2.00;1.75;;;24.90;87.10;;;;;;4966721;28;20177;-79
2023/05/04 11:51:07;;;;;;;2.92;1.88;;;25.00;85.80;;;;;;4955095;28;20220;-80
2023/05/04 11:53:37;;;;;;;1.90;1.70;;;25.10;85.10;;;;;;4971924;28;20251;-79
2023/05/04 11:56:03;;;;;;;3.13;2.03;;;25.10;85.20;;;;;;4961326;28;20197;-79
2023/05/04 11:58:29;;;;;;;3.30;1.90;;;25.20;83.60;;;;;;4956329;29;20257;-77
2023/05/04 12:00:58;;;;;;;2.47;2.17;;;25.30;81.60;;;;;;4957004;29;20220;-77
2023/05/04 12:03:30;;;;;;;2.97;1.75;;;25.40;81.00;;;;;;4957738;29;20181;-79
2023/05/04 12:06:00;;;;;;;2.90;2.13;;;25.40;80.40;;;;;;4955895;29;20213;-77
2023/05/04 12:08:28;;;;;;;2.20;2.00;;;25.40;78.60;;;;;;4968851;28;20185;-79
2023/05/04 12:11:14;;;;;;;2.30;1.83;;;25.50;80.70;;;;;;4954378;28;20188;-79
2023/05/04 12:13:42;;;;;;;2.25;1.95;;;25.50;74.20;;;;;;4955766;29;20348;-79
2023/05/04 12:16:12;;;;;;;3.67;2.08;;;25.60;81.00;;;;;;4964455;28;20189;-80
2023/05/04 12:18:38;;;;;;;2.95;2.00;;;25.70;79.20;;;;;;4957073;29;20259;-78
2023/05/04 12:21:10;;;;;;;2.40;2.00;;;25.80;79.30;;;;;;4970491;28;20177;-81
2023/05/04 12:23:42;;;;;;;3.42;1.80;;;25.90;73.40;;;;;;4946146;28;20277;-78
2023/05/04 12:26:11;;;;;;;2.33;1.83;;;26.00;77.60;;;;;;4973513;28;20347;-78
2023/05/04 12:28:41;;;;;;;3.83;1.70;;;26.10;77.50;;;;;;4959636;28;20267;-77
2023/05/04 12:31:07;;;;;;;3.38;2.10;;;26.10;72.30;;;;;;4956137;29;20187;-78
2023/05/04 12:33:33;;;;;;;2.92;1.70;;;26.20;70.30;;;;;;4942512;28;20201;-78
2023/05/04 12:36:03;;;;;;;2.20;1.90;;;26.10;72.10;;;;;;4954028;29;20279;-77
2023/05/04 12:38:36;;;;;;;1.65;1.55;;;26.20;70.70;;;;;;4957738;28;20200;-79
2023/05/04 12:41:03;;;;;;;2.90;1.60;;;26.20;72.00;;;;;;4973284;28;20180;-78
2023/05/04 12:43:32;;;;;;;2.50;1.40;;;26.30;73.90;;;;;;4957274;29;20196;-78
2023/05/04 12:46:00;;;;;;;3.17;1.58;;;26.50;72.70;;;;;;4972862;28;20176;-78
2023/05/04 12:48:31;;;;;;;3.00;1.60;;;26.60;73.50;;;;;;4973357;28;20208;-79
2023/05/04 12:51:03;;;;;;;2.80;1.60;;;26.80;74.00;;;;;;4956910;29;20387;-80
2023/05/04 12:53:31;;;;;;;2.10;1.63;;;26.90;71.30;;;;;;4956745;29;20408;-79